X  Close Metar Aviation Weather Data        EGTE Exeter
Temperature
17°C Temperature
11°C Dewpoint
68% Humidity



Wind
8 MPH
13 KM/H
4 M/S
7 KTS



140°
SE
Current Conditions

Mostly Sunny Mostly Sunny
Pressure 1011 (hPa) - 29.85 (inHg)
Visibility 6 (mile) - 10 (km)
Airport
Airport-code EGTE

Location: Exeter
Distance: 32 (mi)

Metar:
METAR EGTE 141920Z 14007KT 9999 FEW040 17/11 Q1011

Time: 14-07-2024 20:20 BST